createdAt,value
2023-06-13T00:02:25.883Z,23.20
2023-06-13T00:07:20.222Z,22.30
2023-06-13T00:09:47.129Z,23.00
2023-06-13T00:12:14.090Z,20.30
2023-06-13T00:14:41.112Z,20.30
2023-06-13T00:19:35.456Z,20.20
2023-06-13T00:22:02.443Z,20.10
2023-06-13T00:24:29.622Z,22.80
2023-06-13T00:29:24.388Z,20.20
2023-06-13T00:31:51.286Z,21.30
2023-06-13T00:36:45.785Z,21.40
2023-06-13T00:41:41.299Z,21.80
2023-06-13T00:46:37.093Z,19.80
2023-06-13T00:49:05.823Z,20.90
2023-06-13T00:51:41.364Z,20.40
2023-06-13T00:54:11.608Z,20.90
2023-06-13T00:56:39.041Z,19.60
2023-06-13T00:59:06.276Z,20.20
2023-06-13T01:01:33.391Z,19.80
2023-06-13T01:09:03.928Z,20.60
2023-06-13T01:11:30.978Z,21.80
2023-06-13T01:14:10.022Z,21.60
2023-06-13T01:16:46.627Z,21.40
2023-06-13T01:19:27.147Z,19.30
2023-06-13T01:21:57.476Z,19.60
2023-06-13T01:24:50.660Z,21.50
2023-06-13T01:27:18.707Z,19.80
2023-06-13T01:29:46.318Z,20.30
2023-06-13T01:32:14.332Z,19.50
2023-06-13T01:34:41.602Z,19.00
2023-06-13T01:44:34.570Z,20.00
2023-06-13T01:47:43.120Z,20.60
2023-06-13T01:50:25.806Z,20.00
2023-06-13T01:53:04.068Z,19.90
2023-06-13T01:55:40.002Z,19.90
2023-06-13T01:58:12.587Z,20.00
2023-06-13T02:00:42.020Z,19.80
2023-06-13T02:05:36.675Z,18.80
2023-06-13T02:08:04.011Z,19.30
2023-06-13T02:10:32.543Z,20.50
2023-06-13T02:20:23.749Z,18.40
2023-06-13T02:22:51.010Z,20.80
2023-06-13T02:27:46.333Z,19.20
2023-06-13T02:30:16.064Z,19.50
2023-06-13T02:40:08.995Z,19.20
2023-06-13T02:42:36.055Z,18.20
2023-06-13T02:47:31.587Z,18.40
2023-06-13T02:49:58.547Z,17.70
2023-06-13T02:54:53.957Z,18.10
2023-06-13T02:57:20.977Z,18.60
2023-06-13T02:59:48.966Z,20.10
2023-06-13T03:02:22.033Z,18.70
2023-06-13T03:04:50.278Z,19.20
2023-06-13T03:09:45.164Z,19.40
2023-06-13T03:12:12.903Z,17.40
2023-06-13T03:14:44.413Z,20.00
2023-06-13T03:17:12.026Z,18.20
2023-06-13T03:19:38.944Z,18.50
2023-06-13T03:22:06.817Z,17.80
2023-06-13T03:27:04.541Z,17.40
2023-06-13T03:31:59.344Z,17.40
2023-06-13T03:34:27.290Z,19.60
2023-06-13T03:44:17.487Z,19.70
2023-06-13T03:46:44.324Z,19.50
2023-06-13T03:49:11.481Z,17.30
2023-06-13T03:51:38.672Z,18.20
2023-06-13T03:54:05.647Z,17.00
2023-06-13T03:59:00.262Z,19.80
2023-06-13T04:01:27.799Z,18.70
2023-06-13T04:03:55.156Z,19.60
2023-06-13T04:06:22.497Z,17.60
2023-06-13T04:11:17.046Z,19.20
2023-06-13T04:16:11.452Z,18.20
2023-06-13T04:21:09.251Z,19.60
2023-06-13T04:23:36.655Z,18.40
2023-06-13T04:26:06.881Z,18.90
2023-06-13T04:36:04.973Z,19.80
2023-06-13T04:38:35.266Z,16.90
2023-06-13T04:41:02.978Z,17.90
2023-06-13T04:43:29.875Z,19.50
2023-06-13T04:45:57.860Z,18.30
2023-06-13T04:48:26.495Z,17.60
2023-06-13T04:50:54.218Z,17.60
2023-06-13T05:00:49.604Z,20.00
2023-06-13T05:03:19.540Z,19.50
2023-06-13T05:08:21.653Z,19.80
2023-06-13T05:10:49.233Z,17.60
2023-06-13T05:20:44.370Z,17.50
2023-06-13T05:25:41.712Z,18.90
2023-06-13T05:28:09.140Z,17.80
2023-06-13T05:30:36.129Z,17.60
2023-06-13T05:35:35.047Z,18.50
2023-06-13T05:38:12.638Z,19.70
2023-06-13T05:40:40.673Z,18.60
2023-06-13T05:43:07.613Z,20.70
2023-06-13T05:45:34.468Z,20.80
2023-06-13T05:48:01.499Z,18.30
2023-06-13T05:52:55.929Z,20.70
2023-06-13T06:00:19.110Z,18.40
2023-06-13T06:02:48.511Z,19.80
2023-06-13T06:05:16.270Z,19.90
2023-06-13T06:07:44.958Z,19.90
2023-06-13T06:10:13.736Z,20.10
2023-06-13T06:20:07.272Z,19.00
2023-06-13T06:22:35.693Z,19.20
2023-06-13T06:27:30.090Z,20.20
2023-06-13T06:29:57.057Z,19.40
2023-06-13T06:37:19.339Z,19.70
2023-06-13T06:39:46.617Z,20.00
2023-06-13T06:42:13.483Z,22.70
2023-06-13T06:44:52.748Z,22.70
2023-06-13T06:47:19.814Z,21.40
2023-06-13T06:49:46.811Z,23.00
2023-06-13T06:57:08.427Z,20.70
2023-06-13T06:59:35.303Z,20.60
2023-06-13T07:04:29.644Z,23.30
2023-06-13T07:06:57.137Z,22.70
2023-06-13T07:09:24.081Z,21.90
2023-06-13T07:14:19.518Z,23.70
2023-06-13T07:19:13.926Z,23.60
2023-06-13T07:21:40.994Z,24.50
2023-06-13T07:24:08.582Z,22.60
2023-06-13T07:26:36.653Z,24.50
2023-06-13T07:29:03.878Z,25.00
2023-06-13T07:36:28.437Z,24.30
2023-06-13T07:41:27.776Z,24.10
2023-06-13T07:43:54.650Z,25.60
2023-06-13T07:46:21.839Z,25.30
2023-06-13T07:48:48.697Z,25.80
2023-06-13T07:51:16.484Z,26.00
2023-06-13T07:53:43.370Z,23.50
2023-06-13T07:56:10.236Z,25.10
2023-06-13T07:58:37.421Z,26.40
2023-06-13T08:01:04.536Z,24.00
2023-06-13T08:03:31.761Z,24.10
2023-06-13T08:05:58.813Z,24.90
2023-06-13T08:08:25.863Z,25.30
2023-06-13T08:10:53.157Z,25.50
2023-06-13T08:13:20.531Z,24.20
2023-06-13T08:15:48.722Z,25.70
2023-06-13T08:18:16.637Z,25.90
2023-06-13T08:20:43.763Z,26.00
2023-06-13T08:23:10.936Z,26.40
2023-06-13T08:25:37.866Z,25.40
2023-06-13T08:28:07.648Z,26.30
2023-06-13T08:30:34.923Z,26.40
2023-06-13T08:33:04.867Z,26.60
2023-06-13T08:35:33.211Z,26.50
2023-06-13T08:38:00.075Z,26.70
2023-06-13T08:40:27.103Z,27.80
2023-06-13T08:42:54.599Z,27.00
2023-06-13T08:45:21.513Z,27.20
2023-06-13T08:47:49.797Z,27.10
2023-06-13T08:50:26.157Z,27.00
2023-06-13T08:52:55.741Z,27.80
2023-06-13T08:55:58.512Z,27.30
2023-06-13T08:58:14.090Z,27.30
2023-06-13T09:00:41.988Z,26.40
2023-06-13T09:03:15.112Z,27.50
2023-06-13T09:05:43.756Z,27.60
2023-06-13T09:08:30.007Z,28.00
2023-06-13T09:10:59.332Z,27.80
2023-06-13T09:13:28.551Z,28.10
2023-06-13T09:15:56.408Z,27.50
2023-06-13T09:18:24.288Z,28.50
2023-06-13T09:20:51.359Z,28.50
2023-06-13T09:23:19.246Z,28.90
2023-06-13T09:25:47.592Z,29.10
2023-06-13T09:28:33.157Z,29.10
2023-06-13T09:31:00.411Z,29.00
2023-06-13T09:33:27.615Z,29.10
2023-06-13T09:35:55.149Z,29.20
2023-06-13T09:38:24.426Z,28.40
2023-06-13T09:40:54.545Z,29.40
2023-06-13T09:43:23.297Z,29.30
2023-06-13T09:45:51.513Z,29.70
2023-06-13T09:48:19.443Z,29.80
2023-06-13T09:50:47.185Z,29.70
2023-06-13T09:53:14.433Z,29.90
2023-06-13T09:55:41.617Z,30.00
2023-06-13T09:58:26.975Z,30.20
2023-06-13T10:00:58.741Z,30.40
2023-06-13T10:03:27.337Z,30.50
2023-06-13T10:05:54.487Z,30.60
2023-06-13T10:08:21.443Z,31.00
2023-06-13T10:10:48.992Z,30.80
2023-06-13T10:13:22.874Z,30.90
2023-06-13T10:15:53.253Z,30.90
2023-06-13T10:18:30.788Z,31.00
2023-06-13T10:20:59.597Z,31.30
2023-06-13T10:23:31.592Z,31.30
2023-06-13T10:26:05.810Z,31.30
2023-06-13T10:28:47.644Z,31.40
2023-06-13T10:31:49.849Z,31.50
2023-06-13T10:34:43.953Z,31.70
2023-06-13T10:37:34.635Z,30.80
2023-06-13T10:40:29.854Z,31.90
2023-06-13T10:43:15.681Z,32.20
2023-06-13T10:45:45.084Z,34.00
2023-06-13T10:48:13.384Z,32.70
2023-06-13T10:50:42.832Z,33.00
2023-06-13T10:53:10.764Z,32.50
2023-06-13T10:55:41.583Z,33.10
2023-06-13T10:58:13.584Z,33.10
2023-06-13T11:00:41.091Z,33.20
2023-06-13T11:03:11.104Z,33.30
2023-06-13T11:05:50.311Z,33.40
2023-06-13T11:08:24.093Z,32.20
2023-06-13T11:10:53.134Z,33.60
2023-06-13T11:13:28.054Z,32.80
2023-06-13T11:15:56.815Z,33.50
2023-06-13T11:18:23.799Z,33.30
2023-06-13T11:20:56.358Z,33.90
2023-06-13T11:23:33.637Z,33.90
2023-06-13T11:26:00.620Z,33.90
2023-06-13T11:28:27.690Z,34.00
2023-06-13T11:30:56.135Z,34.10
2023-06-13T11:33:25.636Z,34.20
2023-06-13T11:35:59.093Z,34.30
2023-06-13T11:38:32.734Z,34.40
2023-06-13T11:40:59.841Z,34.50
2023-06-13T11:43:29.234Z,34.70
2023-06-13T11:46:04.097Z,34.80
2023-06-13T11:48:49.803Z,35.10
2023-06-13T11:51:17.981Z,35.20
2023-06-13T11:53:56.468Z,35.30
2023-06-13T11:56:27.632Z,35.40
2023-06-13T11:58:55.625Z,35.60
2023-06-13T12:01:29.166Z,35.80
2023-06-13T12:04:01.410Z,35.80
2023-06-13T12:06:28.637Z,35.90
2023-06-13T12:08:58.478Z,35.90
2023-06-13T12:11:27.886Z,35.90
2023-06-13T12:13:59.890Z,35.90
2023-06-13T12:16:30.674Z,37.50
2023-06-13T12:18:57.947Z,36.50
2023-06-13T12:21:32.938Z,36.10
2023-06-13T12:24:02.116Z,36.30
2023-06-13T12:26:32.472Z,36.40
2023-06-13T12:29:08.132Z,36.30
2023-06-13T12:31:39.766Z,36.30
2023-06-13T12:34:08.424Z,36.20
2023-06-13T12:36:45.148Z,36.40
2023-06-13T12:39:15.377Z,36.60
2023-06-13T12:41:48.467Z,36.60
2023-06-13T12:44:16.006Z,36.50
2023-06-13T12:46:43.095Z,36.50
2023-06-13T12:49:15.776Z,36.60
2023-06-13T12:51:44.594Z,36.70
2023-06-13T12:54:16.800Z,37.20
2023-06-13T12:57:09.995Z,36.90
2023-06-13T12:59:38.881Z,37.10
2023-06-13T13:02:11.471Z,37.20
2023-06-13T13:04:40.876Z,37.30
2023-06-13T13:07:09.086Z,37.30
2023-06-13T13:09:41.463Z,37.40
2023-06-13T13:12:10.770Z,37.30
2023-06-13T13:14:38.595Z,37.10
2023-06-13T13:17:05.784Z,37.00
2023-06-13T13:19:33.271Z,37.00
2023-06-13T13:22:02.019Z,37.10
2023-06-13T13:24:30.326Z,37.20
2023-06-13T13:27:00.103Z,37.30
2023-06-13T13:29:27.130Z,37.20
2023-06-13T13:31:54.234Z,37.20
2023-06-13T13:34:24.186Z,37.10
2023-06-13T13:36:52.531Z,37.10
2023-06-13T13:39:20.390Z,37.20
2023-06-13T13:41:47.510Z,37.40
2023-06-13T13:44:14.477Z,37.20
2023-06-13T13:46:41.565Z,37.10
2023-06-13T13:49:08.680Z,36.60
2023-06-13T13:51:35.877Z,37.30
2023-06-13T13:54:03.473Z,37.50
2023-06-13T13:56:31.077Z,37.50
2023-06-13T13:58:58.147Z,37.60
2023-06-13T14:01:25.141Z,37.60
2023-06-13T14:03:52.303Z,37.50
2023-06-13T14:06:19.219Z,37.40
2023-06-13T14:08:46.150Z,37.30
2023-06-13T14:11:14.796Z,37.50
2023-06-13T14:13:42.086Z,37.50
2023-06-13T14:16:09.395Z,37.60
2023-06-13T14:18:36.555Z,37.60
2023-06-13T14:21:03.741Z,37.50
2023-06-13T14:23:30.708Z,37.40
2023-06-13T14:25:57.558Z,37.40
2023-06-13T14:28:24.629Z,37.40
2023-06-13T14:30:51.604Z,37.40
2023-06-13T14:33:19.131Z,37.40
2023-06-13T14:35:46.656Z,37.40
2023-06-13T14:38:13.621Z,37.70
2023-06-13T14:40:40.966Z,37.60
2023-06-13T14:43:08.141Z,37.40
2023-06-13T14:45:35.474Z,37.10
2023-06-13T14:48:03.362Z,37.00
2023-06-13T14:50:30.501Z,36.90
2023-06-13T14:52:59.332Z,37.20
2023-06-13T14:55:26.612Z,37.40
2023-06-13T14:57:53.698Z,37.50
2023-06-13T15:00:21.435Z,37.70
2023-06-13T15:02:48.829Z,37.80
2023-06-13T15:05:16.001Z,37.80
2023-06-13T15:07:43.045Z,37.80
2023-06-13T15:10:10.002Z,37.70
2023-06-13T15:12:37.037Z,37.70
2023-06-13T15:15:04.257Z,37.60
2023-06-13T15:17:31.395Z,37.60
2023-06-13T15:19:58.312Z,37.70
2023-06-13T15:22:25.438Z,37.80
2023-06-13T15:24:52.493Z,37.70
2023-06-13T15:27:19.344Z,38.90
2023-06-13T15:29:46.771Z,37.60
2023-06-13T15:32:17.794Z,37.40
2023-06-13T15:34:44.934Z,37.30
2023-06-13T15:37:12.014Z,37.20
2023-06-13T15:39:38.939Z,37.30
2023-06-13T15:42:07.075Z,37.30
2023-06-13T15:44:34.012Z,37.40
2023-06-13T15:47:01.050Z,37.40
2023-06-13T15:49:28.162Z,37.50
2023-06-13T15:51:55.287Z,37.40
2023-06-13T15:54:22.185Z,37.40
2023-06-13T15:56:50.352Z,37.60
2023-06-13T15:59:17.272Z,37.70
2023-06-13T16:01:44.874Z,37.60
2023-06-13T16:04:12.588Z,37.40
2023-06-13T16:06:42.551Z,37.20
2023-06-13T16:09:10.500Z,37.20
2023-06-13T16:11:37.462Z,37.20
2023-06-13T16:14:05.642Z,37.00
2023-06-13T16:16:32.674Z,36.80
2023-06-13T16:18:59.570Z,36.70
2023-06-13T16:21:26.563Z,36.80
2023-06-13T16:23:53.579Z,36.80
2023-06-13T16:26:23.763Z,36.70
2023-06-13T16:28:52.485Z,36.70
2023-06-13T16:31:19.566Z,36.60
2023-06-13T16:33:46.998Z,36.40
2023-06-13T16:36:13.911Z,36.30
2023-06-13T16:38:40.991Z,36.30
2023-06-13T16:41:10.522Z,36.10
2023-06-13T16:43:38.309Z,36.00
2023-06-13T16:46:05.484Z,36.00
2023-06-13T16:48:32.458Z,35.90
2023-06-13T16:50:59.339Z,35.90
2023-06-13T16:53:26.285Z,35.90
2023-06-13T16:55:53.269Z,35.70
2023-06-13T16:58:20.746Z,35.60
2023-06-13T17:00:47.984Z,35.50
2023-06-13T17:03:15.180Z,35.50
2023-06-13T17:05:42.164Z,35.40
2023-06-13T17:08:09.805Z,35.30
2023-06-13T17:10:36.857Z,35.30
2023-06-13T17:13:05.307Z,35.20
2023-06-13T17:15:32.495Z,35.20
2023-06-13T17:17:59.560Z,35.40
2023-06-13T17:20:26.503Z,35.10
2023-06-13T17:22:54.221Z,35.10
2023-06-13T17:25:21.411Z,36.60
2023-06-13T17:27:48.598Z,35.40
2023-06-13T17:30:15.469Z,35.00
2023-06-13T17:32:42.446Z,34.90
2023-06-13T17:35:09.630Z,34.70
2023-06-13T17:37:36.816Z,34.50
2023-06-13T17:40:04.067Z,34.20
2023-06-13T17:42:31.118Z,34.10
2023-06-13T17:44:58.006Z,34.00
2023-06-13T17:47:25.099Z,34.00
2023-06-13T17:49:52.432Z,33.90
2023-06-13T17:52:19.594Z,33.90
2023-06-13T17:54:46.656Z,33.40
2023-06-13T17:57:14.091Z,33.30
2023-06-13T17:59:41.104Z,33.10
2023-06-13T18:02:08.051Z,33.00
2023-06-13T18:04:35.682Z,33.10
2023-06-13T18:07:03.339Z,33.00
2023-06-13T18:09:30.829Z,33.00
2023-06-13T18:12:03.512Z,32.90
2023-06-13T18:14:36.319Z,32.80
2023-06-13T18:17:04.052Z,32.70
2023-06-13T18:19:31.549Z,33.10
2023-06-13T18:21:58.514Z,32.40
2023-06-13T18:24:26.184Z,32.30
2023-06-13T18:26:53.106Z,31.70
2023-06-13T18:29:20.936Z,32.00
2023-06-13T18:31:47.992Z,31.90
2023-06-13T18:34:14.953Z,31.20
2023-06-13T18:36:41.883Z,30.10
2023-06-13T18:39:09.340Z,31.40
2023-06-13T18:41:37.412Z,31.30
2023-06-13T18:44:07.366Z,31.10
2023-06-13T18:46:34.512Z,29.90
2023-06-13T18:49:01.444Z,31.90
2023-06-13T18:51:28.845Z,30.60
2023-06-13T18:53:56.580Z,31.10
2023-06-13T18:56:28.255Z,30.30
2023-06-13T18:58:57.395Z,30.20
2023-06-13T19:01:25.610Z,30.10
2023-06-13T19:03:53.201Z,30.00
2023-06-13T19:06:20.167Z,30.10
2023-06-13T19:08:47.163Z,29.90
2023-06-13T19:11:14.377Z,29.90
2023-06-13T19:13:41.219Z,29.10
2023-06-13T19:16:08.057Z,29.50
2023-06-13T19:18:34.990Z,29.40
2023-06-13T19:21:02.366Z,29.20
2023-06-13T19:23:29.507Z,29.10
2023-06-13T19:25:56.528Z,27.40
2023-06-13T19:28:23.415Z,28.10
2023-06-13T19:30:51.149Z,29.20
2023-06-13T19:33:18.378Z,29.70
2023-06-13T19:35:45.937Z,28.30
2023-06-13T19:38:25.707Z,28.90
2023-06-13T19:40:52.846Z,27.70
2023-06-13T19:43:19.860Z,28.00
2023-06-13T19:45:48.674Z,26.00
2023-06-13T19:50:45.608Z,25.20
2023-06-13T19:53:12.649Z,25.00
2023-06-13T19:55:40.831Z,24.90
2023-06-13T20:00:35.546Z,25.00
2023-06-13T20:03:02.845Z,26.90
2023-06-13T20:07:58.201Z,26.50
2023-06-13T20:10:25.554Z,26.70
2023-06-13T20:12:54.747Z,24.40
2023-06-13T20:15:21.774Z,24.10
2023-06-13T20:17:49.004Z,26.50
2023-06-13T20:25:13.613Z,25.10
2023-06-13T20:27:41.103Z,24.80
2023-06-13T20:30:10.082Z,26.40
2023-06-13T20:32:37.393Z,26.20
2023-06-13T20:35:04.976Z,24.80
2023-06-13T20:37:32.178Z,23.70
2023-06-13T20:40:01.750Z,23.50
2023-06-13T20:42:32.685Z,24.60
2023-06-13T20:45:09.025Z,23.40
2023-06-13T20:47:37.924Z,25.90
2023-06-13T20:50:06.662Z,23.40
2023-06-13T20:55:04.421Z,23.20
2023-06-13T20:57:35.419Z,25.10
2023-06-13T21:00:23.047Z,23.80
2023-06-13T21:05:21.888Z,23.90
2023-06-13T21:07:50.044Z,22.70
2023-06-13T21:10:17.569Z,23.40
2023-06-13T21:12:46.502Z,23.80
2023-06-13T21:15:24.569Z,23.70
2023-06-13T21:17:53.963Z,24.90
2023-06-13T21:20:24.407Z,23.60
2023-06-13T21:22:51.600Z,23.60
2023-06-13T21:25:19.951Z,23.00
2023-06-13T21:27:47.771Z,23.00
2023-06-13T21:37:42.973Z,22.00
2023-06-13T21:42:38.027Z,22.40
2023-06-13T21:45:08.704Z,22.30
2023-06-13T21:47:36.220Z,24.30
2023-06-13T21:50:09.044Z,24.40
2023-06-13T21:52:36.830Z,23.10
2023-06-13T21:57:38.668Z,22.90
2023-06-13T22:00:07.550Z,21.60
2023-06-13T22:05:02.269Z,22.30
2023-06-13T22:07:30.204Z,23.40
2023-06-13T22:09:57.442Z,21.30
2023-06-13T22:12:30.694Z,22.70
2023-06-13T22:14:57.894Z,23.40
2023-06-13T22:17:29.598Z,23.80
2023-06-13T22:20:01.246Z,22.40
2023-06-13T22:24:59.458Z,22.20
2023-06-13T22:29:57.002Z,21.00
2023-06-13T22:42:13.526Z,22.30
2023-06-13T22:44:40.423Z,22.90
2023-06-13T22:47:07.494Z,22.90
2023-06-13T22:49:35.033Z,21.60
2023-06-13T22:52:03.535Z,20.60
2023-06-13T22:59:25.728Z,20.40
2023-06-13T23:01:52.803Z,20.90
2023-06-13T23:04:19.736Z,21.30
2023-06-13T23:06:48.759Z,20.20
2023-06-13T23:14:10.441Z,20.90
2023-06-13T23:16:37.651Z,19.90
2023-06-13T23:19:05.730Z,22.20
2023-06-13T23:24:00.778Z,22.00
2023-06-13T23:26:31.369Z,20.50
2023-06-13T23:28:59.116Z,20.50
2023-06-13T23:31:26.050Z,21.10
2023-06-13T23:36:20.236Z,19.40
2023-06-13T23:38:49.872Z,19.90
2023-06-13T23:41:17.442Z,20.80
2023-06-13T23:43:44.334Z,19.50
2023-06-13T23:53:35.319Z,19.10
2023-06-13T23:56:02.196Z,19.20
